Time;durP1;ratioP1;P1;durP2;ratioP2;P2;SDS_P1;SDS_P2;PMS_P1;PMS_P2;Temp;Humidity;BMP_temperature;BMP_pressure;BME280_temperature;BME280_humidity;BME280_pressure;Samples;Min_cycle;Max_cycle;Signal;HPM_P1;HPM_P2
2021/08/07 00:02:14;;;;;;;8.57;1.77;;;;;;;12.09;100.00;93169.94;5075379;28;20195;-79
2021/08/07 00:04:41;;;;;;;6.10;1.90;;;;;;;12.09;100.00;93173.38;5075765;28;20203;-78
2021/08/07 00:07:07;;;;;;;4.73;1.60;;;;;;;12.13;100.00;93181.56;5075294;28;20202;-79
2021/08/07 00:09:34;;;;;;;3.23;1.53;;;;;;;12.21;100.00;93178.63;5074938;28;20207;-80
2021/08/07 00:12:00;;;;;;;5.03;1.73;;;;;;;12.26;100.00;93178.75;5074906;28;20298;-78
2021/08/07 00:14:28;;;;;;;5.77;1.90;;;;;;;12.37;100.00;93175.34;5075029;28;20203;-78
2021/08/07 00:16:55;;;;;;;5.90;1.60;;;;;;;12.43;100.00;93165.78;5074985;28;20619;-78
2021/08/07 00:19:21;;;;;;;7.70;1.87;;;;;;;12.46;100.00;93151.44;5074849;28;20230;-79
2021/08/07 00:21:48;;;;;;;8.90;1.73;;;;;;;12.49;100.00;93145.72;5074729;28;20604;-79
2021/08/07 00:24:15;;;;;;;5.07;1.70;;;;;;;12.47;100.00;93145.16;5074172;28;20209;-79
2021/08/07 00:26:41;;;;;;;6.77;1.90;;;;;;;12.43;100.00;93155.31;5074646;28;20206;-78
2021/08/07 00:29:08;;;;;;;6.43;1.90;;;;;;;12.40;100.00;93159.16;5074777;28;20195;-80
2021/08/07 00:31:35;;;;;;;4.83;1.70;;;;;;;12.35;100.00;93151.19;5073694;28;20202;-78
2021/08/07 00:34:02;;;;;;;3.27;1.70;;;;;;;12.34;100.00;93148.78;5074587;28;20207;-78
2021/08/07 00:36:29;;;;;;;3.30;1.63;;;;;;;12.31;100.00;93144.84;5074393;28;20672;-78
2021/08/07 00:38:55;;;;;;;2.30;1.50;;;;;;;12.28;100.00;93141.88;5074220;28;20253;-80
2021/08/07 00:41:22;;;;;;;4.40;1.57;;;;;;;12.28;100.00;93139.25;5074508;28;20200;-81
2021/08/07 00:43:48;;;;;;;0.57;0.57;;;;;;;12.28;100.00;93137.44;5074117;28;20246;-79
2021/08/07 00:46:15;;;;;;;3.33;1.53;;;;;;;12.38;100.00;93137.66;5074415;28;20206;-80
2021/08/07 00:48:42;;;;;;;2.40;1.30;;;;;;;12.43;100.00;93141.44;5074288;28;20617;-80
2021/08/07 00:51:09;;;;;;;4.50;1.20;;;;;;;12.40;100.00;93140.84;5074242;28;20268;-81
2021/08/07 00:53:36;;;;;;;4.00;1.50;;;;;;;12.34;100.00;93135.72;5074443;28;20205;-80
2021/08/07 00:56:03;;;;;;;4.20;1.43;;;;;;;12.31;100.00;93128.34;5074326;28;20199;-79
2021/08/07 00:58:29;;;;;;;6.70;1.47;;;;;;;12.32;100.00;93130.72;5073929;28;20230;-79
2021/08/07 01:00:56;;;;;;;5.37;1.50;;;;;;;12.33;100.00;93134.13;5073892;28;20206;-79
2021/08/07 01:03:33;;;;;;;3.77;1.40;;;;;;;12.29;100.00;93127.75;5073722;28;20693;-78
2021/08/07 01:06:12;;;;;;;6.37;1.40;;;;;;;12.28;100.00;93118.31;5073798;28;20637;-79
2021/08/07 01:08:41;;;;;;;5.30;1.60;;;;;;;12.30;100.00;93118.88;5074060;28;20198;-78
2021/08/07 01:11:17;;;;;;;3.83;1.37;;;;;;;12.39;100.00;93114.91;5073972;28;20294;-78
2021/08/07 01:13:47;;;;;;;4.87;1.70;;;;;;;12.38;100.00;93119.31;5073875;28;20210;-78
2021/08/07 01:16:20;;;;;;;3.70;1.43;;;;;;;12.38;100.00;93124.56;5073719;28;20213;-79
2021/08/07 01:18:48;;;;;;;3.50;1.30;;;;;;;12.39;100.00;93112.28;5073533;28;20237;-79
2021/08/07 01:21:20;;;;;;;5.90;1.60;;;;;;;12.35;100.00;93111.94;5073782;28;20226;-79
2021/08/07 01:23:50;;;;;;;4.77;1.30;;;;;;;12.35;100.00;93111.13;5073688;28;20564;-78
2021/08/07 01:26:25;;;;;;;7.30;1.57;;;;;;;12.42;100.00;93108.41;5073494;28;20656;-78
2021/08/07 01:28:54;;;;;;;5.10;1.50;;;;;;;12.51;100.00;93101.81;5073258;28;20210;-79
2021/08/07 01:31:21;;;;;;;8.10;2.43;;;;;;;12.50;100.00;93106.22;5073359;28;20198;-79
2021/08/07 01:33:48;;;;;;;5.27;1.27;;;;;;;12.48;100.00;93103.06;5073492;28;20203;-78
2021/08/07 01:36:17;;;;;;;3.10;1.40;;;;;;;12.45;100.00;93111.38;5073273;28;20203;-79
2021/08/07 01:38:45;;;;;;;6.03;1.40;;;;;;;12.39;100.00;93118.31;5073347;28;20226;-79
2021/08/07 01:41:16;;;;;;;2.07;1.30;;;;;;;12.28;100.00;93108.63;5073345;28;20298;-79
2021/08/07 01:43:43;;;;;;;3.10;1.37;;;;;;;12.21;100.00;93107.97;5073041;28;20700;-80
2021/08/07 01:46:12;;;;;;;6.70;1.40;;;;;;;12.16;100.00;93097.38;5073321;28;20206;-78
2021/08/07 01:48:45;;;;;;;5.37;1.60;;;;;;;12.09;100.00;93096.66;5073180;28;20206;-80
2021/08/07 01:51:15;;;;;;;3.27;1.43;;;;;;;12.14;100.00;93092.38;5073223;28;20222;-79
2021/08/07 01:53:44;;;;;;;145.33;111.63;;;;;;;12.13;100.00;93085.53;5073025;28;20206;-80
2021/08/07 01:56:14;;;;;;;5.63;1.83;;;;;;;12.17;100.00;93097.16;5072839;28;20210;-79
2021/08/07 01:58:45;;;;;;;5.90;1.40;;;;;;;12.14;100.00;93107.25;5072874;28;20226;-80
2021/08/07 02:01:14;;;;;;;3.97;1.80;;;;;;;12.10;100.00;93101.69;5073201;28;20241;-78
2021/08/07 02:03:41;;;;;;;1.70;1.07;;;;;;;12.13;100.00;93101.22;5072917;28;20198;-79
2021/08/07 02:06:08;;;;;;;5.57;1.47;;;;;;;12.15;100.00;93096.56;5073019;28;20205;-78
2021/08/07 02:08:36;;;;;;;4.13;1.47;;;;;;;12.19;100.00;93100.34;5072785;28;20207;-79
2021/08/07 02:11:04;;;;;;;3.30;1.23;;;;;;;12.17;100.00;93099.78;5073095;28;20199;-81
2021/08/07 02:13:31;;;;;;;2.57;1.43;;;;;;;12.20;100.00;93083.59;5073074;28;20209;-79
2021/08/07 02:15:58;;;;;;;2.57;1.30;;;;;;;12.26;100.00;93084.53;5072888;28;20194;-80
2021/08/07 02:18:27;;;;;;;2.27;1.33;;;;;;;12.29;100.00;93078.84;5073162;28;20604;-80
2021/08/07 02:20:55;;;;;;;5.37;1.43;;;;;;;12.33;100.00;93079.16;5072818;28;20206;-79
2021/08/07 02:23:23;;;;;;;5.63;1.40;;;;;;;12.29;100.00;93086.69;5072878;28;20202;-79
2021/08/07 02:25:53;;;;;;;6.33;1.43;;;;;;;12.22;100.00;93088.59;5072670;28;20198;-79
2021/08/07 02:28:21;;;;;;;3.47;1.17;;;;;;;12.19;100.00;93087.25;5072689;28;20657;-80
2021/08/07 02:30:47;;;;;;;3.30;1.40;;;;;;;12.17;100.00;93096.34;5072872;28;20199;-79
2021/08/07 02:33:16;;;;;;;127.67;25.17;;;;;;;12.17;100.00;93097.16;5072212;28;20561;-79
2021/08/07 02:35:44;;;;;;;13.00;11.70;;;;;;;12.26;100.00;93097.59;5070800;28;20195;-79
2021/08/07 02:38:11;;;;;;;4.63;1.30;;;;;;;12.38;100.00;93092.38;5072646;28;20220;-79
2021/08/07 02:40:38;;;;;;;74.60;25.50;;;;;;;12.38;100.00;93081.91;5072954;28;20198;-78
2021/08/07 02:43:06;;;;;;;2.67;1.17;;;;;;;12.43;100.00;93086.44;5072677;28;20203;-81
2021/08/07 02:45:33;;;;;;;4.20;1.27;;;;;;;12.38;100.00;93081.91;5072341;28;20241;-78
2021/08/07 02:48:00;;;;;;;2.00;1.10;;;;;;;12.34;100.00;93078.94;5072479;28;20205;-81
2021/08/07 02:50:27;;;;;;;2.47;1.23;;;;;;;12.32;100.00;93073.16;5072601;28;20210;-79
2021/08/07 02:52:57;;;;;;;3.17;1.40;;;;;;;12.27;100.00;93066.97;5072627;28;20654;-79
2021/08/07 02:55:23;;;;;;;4.07;1.73;;;;;;;12.25;100.00;93066.44;5076470;28;20199;-79
2021/08/07 02:57:51;;;;;;;6.60;1.33;;;;;;;12.22;100.00;93059.81;5076555;28;20206;-79
2021/08/07 03:00:18;;;;;;;86.10;18.30;;;;;;;12.16;100.00;93064.16;5076303;28;20233;-81
2021/08/07 03:02:45;;;;;;;11.30;6.47;;;;;;;12.11;100.00;93056.19;5076095;28;20199;-79
2021/08/07 03:05:12;;;;;;;4.47;2.50;;;;;;;12.20;100.00;93054.81;5076247;28;20195;-79
2021/08/07 03:07:38;;;;;;;78.30;50.73;;;;;;;12.20;100.00;93070.50;5076498;28;20202;-79
2021/08/07 03:10:09;;;;;;;3.20;1.30;;;;;;;12.19;100.00;93074.16;5076238;28;20198;-79
2021/08/07 03:12:36;;;;;;;5.23;1.20;;;;;;;12.12;100.00;93062.19;5076151;28;20205;-80
2021/08/07 03:15:05;;;;;;;3.60;1.87;;;;;;;12.16;100.00;93063.34;5075791;28;20207;-79
2021/08/07 03:17:31;;;;;;;5.13;1.27;;;;;;;12.15;100.00;93065.16;5075822;28;20207;-79
2021/08/07 03:19:59;;;;;;;4.17;1.30;;;;;;;12.13;100.00;93064.59;5076151;28;20237;-80
2021/08/07 03:22:25;;;;;;;7.10;4.50;;;;;;;12.20;100.00;93060.03;5076069;28;20289;-78
2021/08/07 03:24:52;;;;;;;12.60;11.03;;;;;;;12.21;100.00;93055.63;5075758;28;20206;-78
2021/08/07 03:27:20;;;;;;;5.23;1.40;;;;;;;12.29;100.00;93057.91;5076004;28;20557;-78
2021/08/07 03:29:46;;;;;;;5.53;1.30;;;;;;;12.33;100.00;93059.00;5075663;28;20233;-82
2021/08/07 03:32:13;;;;;;;2.53;1.20;;;;;;;12.31;100.00;93065.53;5075572;28;20673;-80
2021/08/07 03:34:39;;;;;;;3.90;1.43;;;;;;;12.32;100.00;93056.63;5075720;28;20649;-79
2021/08/07 03:37:06;;;;;;;8.73;1.43;;;;;;;12.26;100.00;93047.06;5075540;28;20199;-79
2021/08/07 03:39:32;;;;;;;5.00;2.40;;;;;;;12.27;100.00;93048.66;5075650;28;20230;-80
2021/08/07 03:41:59;;;;;;;1.90;1.20;;;;;;;12.34;100.00;93039.69;5075554;28;20199;-79
2021/08/07 03:44:26;;;;;;;3.73;1.30;;;;;;;12.38;100.00;93045.25;5075257;28;20229;-79
2021/08/07 03:46:53;;;;;;;5.10;1.30;;;;;;;12.36;100.00;93042.06;5075582;28;20202;-81
2021/08/07 03:49:19;;;;;;;4.50;1.10;;;;;;;12.39;100.00;93039.00;5075593;28;20202;-79
2021/08/07 03:51:46;;;;;;;6.10;1.40;;;;;;;12.36;100.00;93031.59;5075919;28;20199;-79
2021/08/07 03:54:12;;;;;;;6.73;1.40;;;;;;;12.37;100.00;93025.31;5075512;28;20205;-81
2021/08/07 03:56:39;;;;;;;6.73;1.30;;;;;;;12.43;100.00;93016.56;5075512;28;20207;-79
2021/08/07 03:59:05;;;;;;;13.33;1.87;;;;;;;12.43;100.00;93013.94;5075141;28;20226;-80
2021/08/07 04:01:33;;;;;;;8.80;1.30;;;;;;;12.46;100.00;93023.16;5075285;28;20203;-79
2021/08/07 04:04:00;;;;;;;4.70;1.40;;;;;;;12.46;100.00;93025.78;5075105;28;20206;-79
2021/08/07 04:06:26;;;;;;;3.23;1.00;;;;;;;12.45;100.00;93019.72;5075206;28;20299;-80
2021/08/07 04:08:53;;;;;;;4.07;1.50;;;;;;;12.48;100.00;93018.50;5075026;28;20657;-81
2021/08/07 04:11:19;;;;;;;4.97;1.27;;;;;;;12.46;100.00;93013.47;5074961;28;20661;-80
2021/08/07 04:13:46;;;;;;;4.10;1.37;;;;;;;12.47;100.00;93011.66;5074875;28;20203;-80
2021/08/07 04:16:12;;;;;;;2.70;1.20;;;;;;;12.49;100.00;93005.16;5074995;28;20206;-80
2021/08/07 04:18:40;;;;;;;3.50;1.30;;;;;;;12.51;100.00;92997.88;5075053;28;20218;-80
2021/08/07 04:21:07;;;;;;;4.63;1.33;;;;;;;12.53;100.00;93006.28;5074895;28;20199;-80
2021/08/07 04:23:33;;;;;;;4.70;1.20;;;;;;;12.54;100.00;93007.06;5074937;28;20199;-81
2021/08/07 04:26:00;;;;;;;10.47;3.83;;;;;;;12.58;100.00;93008.22;5074769;28;20202;-80
2021/08/07 04:28:26;;;;;;;1.97;1.73;;;;;;;12.56;100.00;93008.44;5074951;28;20676;-80
2021/08/07 04:30:53;;;;;;;5.40;1.70;;;;;;;12.59;100.00;93018.47;5074101;28;20646;-80
2021/08/07 04:33:19;;;;;;;7.07;1.60;;;;;;;12.61;100.00;93030.50;5074646;28;20206;-81
2021/08/07 04:35:47;;;;;;;6.20;1.20;;;;;;;12.65;100.00;93029.81;5074517;28;20202;-80
2021/08/07 04:38:13;;;;;;;9.77;4.57;;;;;;;12.70;100.00;93011.59;5074592;28;20210;-80
2021/08/07 04:40:40;;;;;;;2.20;1.20;;;;;;;12.79;100.00;92993.69;5074444;28;20230;-80
2021/08/07 04:43:06;;;;;;;6.13;4.43;;;;;;;12.85;100.00;93002.44;5074635;28;20194;-80
2021/08/07 04:45:33;;;;;;;4.20;1.30;;;;;;;12.87;100.00;93006.44;5074053;28;20227;-80
2021/08/07 04:48:01;;;;;;;4.50;1.23;;;;;;;12.91;100.00;93007.53;5074263;28;20661;-81
2021/08/07 04:50:33;;;;;;;5.13;1.50;;;;;;;12.93;100.00;93013.34;5074301;28;20515;-80
2021/08/07 04:53:01;;;;;;;3.57;1.10;;;;;;;12.98;100.00;93023.13;5074107;28;20203;-80
2021/08/07 04:55:28;;;;;;;2.97;1.00;;;;;;;13.03;100.00;93017.97;5074013;28;20199;-80
2021/08/07 04:57:55;;;;;;;3.40;1.03;;;;;;;13.07;100.00;93024.34;5074223;28;20210;-80
2021/08/07 05:00:22;;;;;;;10.30;5.85;;;;;;;13.05;100.00;93028.22;5074257;28;20230;-81
2021/08/07 05:02:49;;;;;;;2.95;0.90;;;;;;;13.05;100.00;93018.53;5074146;28;20206;-80
2021/08/07 05:05:17;;;;;;;34.90;14.77;;;;;;;12.99;100.00;93013.44;5074003;28;20202;-81
2021/08/07 05:07:44;;;;;;;3.63;1.20;;;;;;;12.93;100.00;93010.72;5073105;28;20520;-79
2021/08/07 05:10:13;;;;;;;35.03;9.45;;;;;;;12.86;100.00;93004.84;5075721;28;20207;-81
2021/08/07 05:12:40;;;;;;;4.93;1.13;;;;;;;12.82;100.00;92997.66;5074076;28;20203;-79
2021/08/07 05:15:07;;;;;;;77.03;24.27;;;;;;;12.80;100.00;93000.50;5073848;28;20538;-80
2021/08/07 05:17:34;;;;;;;3.67;1.27;;;;;;;12.81;100.00;92994.25;5073439;28;20199;-79
2021/08/07 05:20:01;;;;;;;5.38;1.20;;;;;;;12.89;100.00;92988.66;5073564;28;20227;-81
2021/08/07 05:22:27;;;;;;;3.47;1.17;;;;;;;12.89;100.00;92972.13;5073463;28;20670;-80
2021/08/07 05:24:54;;;;;;;4.87;1.07;;;;;;;13.18;100.00;92986.00;5073643;28;20198;-80
2021/08/07 05:27:22;;;;;;;2.00;0.95;;;;;;;13.50;100.00;92998.63;5073589;28;20231;-79
2021/08/07 05:29:49;;;;;;;18.05;6.78;;;;;;;13.83;100.00;92997.03;5073541;28;20202;-80
2021/08/07 05:32:15;;;;;;;3.97;1.00;;;;;;;13.97;100.00;92995.69;5073144;28;20199;-80
2021/08/07 05:34:42;;;;;;;6.13;1.42;;;;;;;14.13;100.00;93001.16;5073236;28;20557;-81
2021/08/07 05:37:08;;;;;;;4.88;1.00;;;;;;;14.31;100.00;93007.97;5073639;28;20206;-80
2021/08/07 05:39:35;;;;;;;2.45;1.00;;;;;;;14.50;100.00;93011.88;5073213;28;20233;-80
2021/08/07 05:42:01;;;;;;;4.50;1.08;;;;;;;14.69;100.00;93012.41;5074022;28;20206;-81
2021/08/07 05:44:29;;;;;;;14.63;9.45;;;;;;;14.87;100.00;93006.06;5073529;28;20655;-80
2021/08/07 05:46:56;;;;;;;9.18;0.93;;;;;;;14.83;100.00;93009.41;5073726;28;20206;-81
2021/08/07 05:49:22;;;;;;;3.35;0.90;;;;;;;14.84;100.00;93001.28;5073112;28;20206;-82
2021/08/07 05:51:48;;;;;;;6.38;3.90;;;;;;;14.68;100.00;92997.69;5074017;28;20621;-80
2021/08/07 05:54:16;;;;;;;2.45;0.90;;;;;;;14.63;100.00;92995.00;5073406;28;20538;-80
2021/08/07 05:56:42;;;;;;;4.28;0.90;;;;;;;14.82;100.00;93010.44;5073611;28;20233;-80
2021/08/07 05:59:09;;;;;;;4.70;0.90;;;;;;;15.01;100.00;93010.94;5073383;28;20213;-81
2021/08/07 06:01:37;;;;;;;8.27;7.32;;;;;;;15.30;100.00;93014.13;5073174;28;20202;-80
2021/08/07 06:04:03;;;;;;;12.50;6.07;;;;;;;15.59;100.00;93016.47;5073068;28;20576;-82
2021/08/07 06:06:30;;;;;;;20.88;12.65;;;;;;;16.05;100.00;93014.22;5073283;28;20198;-83
2021/08/07 06:08:56;;;;;;;2.92;2.22;;;;;;;16.53;100.00;93007.16;5073212;28;20206;-82
2021/08/07 06:11:23;;;;;;;29.02;25.08;;;;;;;16.85;100.00;92993.06;5073094;28;20259;-82
2021/08/07 06:13:49;;;;;;;0.32;0.32;;;;;;;17.14;100.00;92961.78;5073156;28;20198;-82
2021/08/07 06:16:16;;;;;;;0.20;0.20;;;;;;;16.96;100.00;92955.16;5072920;28;20685;-81
2021/08/07 06:18:44;;;;;;;0.30;0.30;;;;;;;16.90;100.00;92948.25;5072820;28;20205;-80
2021/08/07 06:21:10;;;;;;;0.30;0.30;;;;;;;16.92;100.00;92954.09;5072888;28;20231;-80
2021/08/07 06:23:37;;;;;;;0.30;0.30;;;;;;;16.85;100.00;92958.78;5073310;28;20593;-80
2021/08/07 06:26:03;;;;;;;0.30;0.30;;;;;;;16.94;100.00;92967.81;5072172;28;20198;-80
2021/08/07 06:28:30;;;;;;;0.32;0.32;;;;;;;16.77;100.00;92972.44;5073695;28;20202;-80
2021/08/07 06:30:56;;;;;;;30.30;2.33;;;;;;;16.99;100.00;92961.75;5076828;28;20202;-81
2021/08/07 06:33:23;;;;;;;2.30;1.00;;;;;;;17.25;100.00;92964.44;5076793;28;20203;-80
2021/08/07 06:35:50;;;;;;;3.42;0.90;;;;;;;17.45;100.00;92967.09;5076977;28;20201;-80
2021/08/07 06:38:17;;;;;;;1.73;0.80;;;;;;;17.41;100.00;92970.53;5076814;28;20209;-81
2021/08/07 06:40:43;;;;;;;4.30;1.08;;;;;;;17.83;100.00;92985.31;5076600;28;20653;-81
2021/08/07 06:43:10;;;;;;;4.65;1.05;;;;;;;17.62;98.84;92998.53;5076723;28;20295;-81
2021/08/07 06:45:37;;;;;;;5.63;1.20;;;;;;;17.75;95.71;93003.28;5076409;28;20608;-81
2021/08/07 06:48:04;;;;;;;2.78;1.55;;;;;;;17.78;93.39;93017.00;5076459;28;20202;-80
2021/08/07 06:50:30;;;;;;;2.42;1.00;;;;;;;17.89;96.85;93019.41;5076669;28;20205;-81
2021/08/07 06:52:58;;;;;;;1.13;0.90;;;;;;;17.69;96.22;93017.53;5076758;28;20610;-80
2021/08/07 06:55:25;;;;;;;1.83;0.80;;;;;;;17.87;92.75;93021.53;5076678;28;20199;-80
2021/08/07 06:57:51;;;;;;;4.63;1.00;;;;;;;17.81;96.16;92995.38;5076560;28;20206;-81
2021/08/07 07:00:18;;;;;;;2.80;1.05;;;;;;;17.78;95.15;92986.09;5076207;28;20226;-81
2021/08/07 07:02:44;;;;;;;3.50;0.90;;;;;;;17.81;92.27;92995.38;5076696;28;20256;-82
2021/08/07 07:05:11;;;;;;;5.32;0.90;;;;;;;17.97;92.40;92996.97;5076440;28;20195;-80
2021/08/07 07:07:38;;;;;;;3.17;1.13;;;;;;;17.90;97.34;92993.78;5076291;28;20202;-82
2021/08/07 07:10:08;;;;;;;6.65;1.45;;;;;;;17.85;97.25;92999.03;5078046;28;20241;-81
2021/08/07 07:12:35;;;;;;;2.30;0.85;;;;;;;18.10;92.52;93003.56;5079007;28;20281;-80
2021/08/07 07:15:03;;;;;;;2.58;0.85;;;;;;;18.01;100.00;92995.38;5078859;28;20235;-80
2021/08/07 07:17:32;;;;;;;6.53;1.27;;;;;;;18.35;92.20;92978.94;5078042;28;20195;-80
2021/08/07 07:20:00;;;;;;;2.22;0.80;;;;;;;17.87;97.30;92962.63;5076992;28;20223;-80
2021/08/07 07:22:27;;;;;;;4.72;1.10;;;;;;;18.03;95.30;92968.69;5076754;28;20445;-80
2021/08/07 07:24:53;;;;;;;4.45;1.20;;;;;;;17.93;100.00;92983.47;5075805;28;20756;-78
2021/08/07 07:27:21;;;;;;;3.00;1.30;;;;;;;18.06;97.75;92987.44;5076160;28;20229;-80
2021/08/07 07:29:48;;;;;;;15.25;2.97;;;;;;;18.14;96.23;92978.19;5076277;28;20206;-81
2021/08/07 07:32:14;;;;;;;26.42;18.70;;;;;;;18.26;96.79;92986.63;5076117;28;20662;-80
2021/08/07 07:34:41;;;;;;;4.53;1.35;;;;;;;18.44;94.25;92976.53;5075993;28;20225;-80
2021/08/07 07:37:07;;;;;;;107.35;44.00;;;;;;;18.53;95.92;92990.00;5075909;28;20203;-82
2021/08/07 07:39:34;;;;;;;152.38;52.70;;;;;;;18.87;90.12;92995.47;5075165;28;20203;-81
2021/08/07 07:42:01;;;;;;;49.10;7.65;;;;;;;18.52;91.38;92993.69;5075572;28;20252;-80
2021/08/07 07:44:29;;;;;;;0.10;0.10;;;;;;;18.53;96.20;92987.34;5075391;28;20247;-80
2021/08/07 07:46:55;;;;;;;0.10;0.10;;;;;;;18.43;95.52;92994.25;5072458;28;21583;-81
2021/08/07 07:49:22;;;;;;;0.10;0.10;;;;;;;18.57;93.42;92991.03;5073337;28;20210;-80
2021/08/07 07:51:50;;;;;;;0.15;0.15;;;;;;;18.57;90.78;92993.69;5075404;28;20203;-82
2021/08/07 07:54:22;;;;;;;0.20;0.20;;;;;;;18.56;93.22;92995.53;5072180;28;20203;-81
2021/08/07 07:56:51;;;;;;;0.10;0.10;;;;;;;18.47;95.68;92991.88;5075553;28;20215;-79
2021/08/07 07:59:17;;;;;;;0.10;0.10;;;;;;;18.33;95.05;92985.56;5075187;28;20653;-79
2021/08/07 08:01:48;;;;;;;0.20;0.20;;;;;;;18.32;98.21;92968.91;5075556;28;20233;-80
2021/08/07 08:04:14;;;;;;;0.20;0.20;;;;;;;18.57;98.25;92956.66;5075424;28;20214;-82
2021/08/07 08:06:41;;;;;;;0.20;0.20;;;;;;;18.67;100.00;92948.72;5075316;28;20198;-81
2021/08/07 08:09:10;;;;;;;0.20;0.20;;;;;;;18.56;97.23;92945.31;5075009;28;20202;-81
2021/08/07 08:11:37;;;;;;;0.17;0.17;;;;;;;18.53;100.00;92947.69;5075369;28;20202;-80
2021/08/07 08:14:03;;;;;;;0.20;0.20;;;;;;;18.42;95.03;92953.03;5075237;28;20679;-82
2021/08/07 08:16:31;;;;;;;0.60;0.60;;;;;;;18.25;99.72;92957.81;5075460;28;20205;-80
2021/08/07 08:18:59;;;;;;;66.45;33.63;;;;;;;17.84;100.00;92961.28;5074801;28;20231;-82
2021/08/07 08:21:25;;;;;;;0.17;0.17;;;;;;;17.51;100.00;92965.25;5074788;28;20581;-82
2021/08/07 08:23:52;;;;;;;0.10;0.10;;;;;;;17.14;100.00;92972.34;5074877;28;20601;-82
2021/08/07 08:26:18;;;;;;;2.85;2.75;;;;;;;16.34;100.00;92963.84;5074843;28;20229;-80
2021/08/07 08:28:45;;;;;;;54.38;30.17;;;;;;;15.91;100.00;92969.91;5075049;28;20210;-81
2021/08/07 08:31:12;;;;;;;23.48;10.15;;;;;;;15.73;100.00;92965.03;5075365;28;20205;-81
2021/08/07 08:33:38;;;;;;;4.32;1.35;;;;;;;15.68;100.00;92964.97;5073765;28;20220;-83
2021/08/07 08:36:06;;;;;;;4.47;1.63;;;;;;;15.57;100.00;92969.38;5074863;28;20667;-81
2021/08/07 08:38:33;;;;;;;3.47;1.10;;;;;;;15.47;100.00;92972.72;5074420;28;20202;-80
2021/08/07 08:41:01;;;;;;;2.22;1.20;;;;;;;15.39;100.00;92980.25;5074244;28;20229;-79
2021/08/07 08:43:28;;;;;;;3.75;1.50;;;;;;;15.40;100.00;92992.38;5074381;28;20234;-78
2021/08/07 08:45:54;;;;;;;3.80;1.10;;;;;;;15.35;100.00;92985.22;5074241;28;20195;-80
2021/08/07 08:48:21;;;;;;;3.67;1.30;;;;;;;15.39;100.00;92983.69;5074334;28;20202;-79
2021/08/07 08:50:49;;;;;;;5.30;1.52;;;;;;;15.33;100.00;92992.56;5073405;28;20991;-80
2021/08/07 08:53:17;;;;;;;3.63;1.52;;;;;;;15.36;100.00;92999.97;5073478;28;20477;-81
2021/08/07 08:55:43;;;;;;;5.18;1.63;;;;;;;15.41;100.00;93007.91;5073797;28;20195;-82
2021/08/07 08:58:10;;;;;;;4.80;1.30;;;;;;;15.35;100.00;92996.56;5074042;28;20680;-82
2021/08/07 09:00:37;;;;;;;2.75;1.42;;;;;;;15.35;100.00;92982.59;5074003;28;20580;-80
2021/08/07 09:03:04;;;;;;;2.65;1.25;;;;;;;15.46;100.00;92984.28;5074075;28;20213;-81
2021/08/07 09:05:31;;;;;;;1.90;1.25;;;;;;;15.28;100.00;92974.91;5074157;28;20194;-79
2021/08/07 09:07:58;;;;;;;4.50;1.20;;;;;;;15.35;100.00;92972.06;5074083;28;20199;-81
2021/08/07 09:10:25;;;;;;;5.93;1.10;;;;;;;15.51;100.00;92970.38;5073972;28;20203;-80
2021/08/07 09:12:55;;;;;;;2.13;1.10;;;;;;;15.58;100.00;92978.06;5073936;28;20202;-81
2021/08/07 09:15:35;;;;;;;1.30;0.68;;;;;;;15.76;100.00;92985.59;5074072;28;20565;-80
2021/08/07 09:18:17;;;;;;;0.75;0.75;;;;;;;16.02;100.00;92996.31;5073979;28;20652;-80
2021/08/07 09:20:45;;;;;;;1.00;0.50;;;;;;;16.19;100.00;92993.53;5053749;28;20237;-79
2021/08/07 09:23:12;;;;;;;2.03;0.80;;;;;;;16.26;100.00;92986.19;5053729;28;20195;-79
2021/08/07 09:25:42;;;;;;;16.30;0.88;;;;;;;16.12;100.00;92990.31;5053564;28;20654;-80
2021/08/07 09:28:12;;;;;;;1.40;0.82;;;;;;;16.37;100.00;92994.94;5056388;28;20195;-79
2021/08/07 09:30:40;;;;;;;0.55;0.52;;;;;;;16.75;100.00;93007.00;5073654;28;20214;-80
2021/08/07 09:33:10;;;;;;;1.95;0.75;;;;;;;17.18;100.00;93004.25;5073615;28;20194;-80
2021/08/07 09:35:38;;;;;;;2.15;0.73;;;;;;;17.36;100.00;93022.22;5073505;28;20209;-81
2021/08/07 09:38:18;;;;;;;1.25;0.70;;;;;;;17.55;100.00;93021.72;5073329;28;20206;-81
2021/08/07 09:40:52;;;;;;;1.10;0.70;;;;;;;17.57;100.00;93032.84;5074429;28;20295;-80
2021/08/07 09:43:21;;;;;;;4.25;0.63;;;;;;;17.43;100.00;93037.81;5073292;28;20205;-81
2021/08/07 09:46:02;;;;;;;3.95;0.60;;;;;;;17.59;100.00;93028.09;5073512;28;20226;-80
2021/08/07 09:48:40;;;;;;;1.58;0.73;;;;;;;17.94;100.00;93039.75;5073211;28;20199;-81
2021/08/07 09:51:28;;;;;;;2.28;0.82;;;;;;;17.61;100.00;93023.34;5072789;28;20212;-77
2021/08/07 09:54:11;;;;;;;0.90;0.65;;;;;;;17.86;100.00;93021.78;5073344;28;20202;-81
2021/08/07 09:56:48;;;;;;;1.27;0.75;;;;;;;17.76;100.00;93015.41;5073203;28;20210;-80
2021/08/07 09:59:16;;;;;;;1.02;0.80;;;;;;;17.74;100.00;93011.47;5073084;28;20198;-80
2021/08/07 10:01:42;;;;;;;2.47;0.73;;;;;;;17.80;100.00;93005.13;5073181;28;20229;-80
2021/08/07 10:04:11;;;;;;;1.33;0.50;;;;;;;17.70;100.00;93000.66;5073146;28;20225;-79
2021/08/07 10:06:38;;;;;;;0.98;0.60;;;;;;;17.69;100.00;93004.34;5073218;28;20198;-80
2021/08/07 10:09:09;;;;;;;1.20;0.60;;;;;;;17.33;100.00;92996.38;5072901;28;20206;-79
2021/08/07 10:11:38;;;;;;;0.73;0.63;;;;;;;17.32;100.00;92991.34;5072878;28;20666;-80
2021/08/07 10:14:07;;;;;;;0.75;0.40;;;;;;;17.30;100.00;92983.72;5072719;28;20207;-81
2021/08/07 10:16:35;;;;;;;0.75;0.35;;;;;;;17.40;100.00;92980.28;5073079;28;20219;-79
2021/08/07 10:19:02;;;;;;;1.60;0.73;;;;;;;17.35;100.00;92982.91;5073079;28;20203;-80
2021/08/07 10:21:30;;;;;;;0.20;0.20;;;;;;;17.42;100.00;92982.66;5072890;28;20226;-80
2021/08/07 10:23:58;;;;;;;3.47;0.70;;;;;;;17.81;100.00;92987.44;5071152;28;20434;-80
2021/08/07 10:26:27;;;;;;;0.75;0.40;;;;;;;17.90;100.00;92988.50;5072715;28;20195;-80
2021/08/07 10:28:55;;;;;;;2.03;0.70;;;;;;;17.96;100.00;92987.47;5072751;28;20209;-81
2021/08/07 10:31:26;;;;;;;0.57;0.47;;;;;;;18.09;100.00;92986.91;5072881;28;20209;-79
2021/08/07 10:33:56;;;;;;;3.17;0.50;;;;;;;18.21;100.00;92993.78;5073043;28;20198;-81
2021/08/07 10:36:25;;;;;;;3.15;0.60;;;;;;;18.30;100.00;93002.72;5072872;28;20203;-81
2021/08/07 10:38:52;;;;;;;1.13;0.47;;;;;;;17.87;100.00;92991.69;5072561;28;20206;-79
2021/08/07 10:41:19;;;;;;;0.63;0.50;;;;;;;17.54;100.00;92983.22;5072730;28;20222;-81
2021/08/07 10:43:51;;;;;;;0.75;0.60;;;;;;;17.18;100.00;92972.59;5072654;28;20227;-79
2021/08/07 10:46:18;;;;;;;2.10;0.73;;;;;;;16.90;100.00;92979.91;5072718;28;20203;-81
2021/08/07 10:48:48;;;;;;;0.85;0.70;;;;;;;16.83;100.00;92981.97;5072850;28;20659;-80
2021/08/07 10:51:41;;;;;;;1.60;0.75;;;;;;;16.96;100.00;92981.50;5072539;28;20210;-81
2021/08/07 10:54:35;;;;;;;0.60;0.45;;;;;;;17.31;100.00;92995.84;5056890;28;20207;-80
2021/08/07 10:57:02;;;;;;;0.50;0.50;;;;;;;17.34;100.00;92982.13;5061087;28;20291;-81
2021/08/07 10:59:30;;;;;;;1.02;0.80;;;;;;;17.34;100.00;92976.84;5068226;28;20203;-80
2021/08/07 11:01:58;;;;;;;1.77;0.80;;;;;;;17.01;100.00;92976.25;5068684;28;20681;-81
2021/08/07 11:04:32;;;;;;;2.28;0.40;;;;;;;16.88;100.00;92981.22;5059973;28;20202;-82
2021/08/07 11:07:08;;;;;;;1.30;0.70;;;;;;;16.53;100.00;92978.16;5061111;28;20195;-80
2021/08/07 11:09:37;;;;;;;2.10;0.70;;;;;;;16.48;100.00;92972.09;5056301;28;20452;-80
2021/08/07 11:12:21;;;;;;;1.30;0.68;;;;;;;16.41;100.00;92965.19;5059494;28;20605;-80
2021/08/07 11:14:51;;;;;;;0.85;0.50;;;;;;;16.48;100.00;92969.44;5060772;28;20227;-79
2021/08/07 11:17:33;;;;;;;1.15;0.70;;;;;;;16.63;100.00;92964.22;5072931;28;20199;-81
2021/08/07 11:20:06;;;;;;;1.02;0.52;;;;;;;16.83;100.00;92955.59;5066914;28;20195;-81
2021/08/07 11:23:09;;;;;;;2.42;0.60;;;;;;;16.99;100.00;92970.44;5064307;28;20215;-82
2021/08/07 11:25:52;;;;;;;1.83;0.70;;;;;;;17.22;100.00;92967.59;5073819;28;20601;-80
2021/08/07 11:28:21;;;;;;;1.00;0.90;;;;;;;17.25;100.00;92977.63;5069201;28;20203;-80
2021/08/07 11:30:48;;;;;;;0.50;0.50;;;;;;;17.13;100.00;92976.00;5064453;28;20283;-80